DRI Storm Peak Lab. Weather observations

Data are for 5 minute period ending at time listed.
 Day   Time    Ave.   Ave.  Ave.  Vector  Max.   Total    Baro.    Solar      Aerosol      Ave.  Ultrafine   Snow  
  of    of     Air    Rel.  Wind   Wind   Wind  Precip.   Pres.  Radiation   Aerosol      Ozone   Aerosol    Depth 
Year   Day     Temp.  Hum.  Speed  Dir.   Gust                               Ave.   Max.            Ave.           
2015   (MST)    F      %     mph   deg.    mph    in.      mb.     w/m2         #/cm3      ppbv    #/cm3      in.  
-------------------------------------------------------------------------------------------------------------------
 245   10:05   53.2    56    5.1   239     8.9   999.00    698.1      0.0    -1431       0   999.0        0     0.0
 245   10:10   53.3    53    3.9   245     9.1   999.00    698.1      0.0    -1431       0   999.0        0     0.0
 245   10:15   53.7    56    4.5   293     6.8   999.00    698.1      0.0    -1430       0   999.0        0     0.0
 245   10:20   54.6    53    4.1   240     6.8   999.00    698.1      0.0    -1430       0   999.0        0     0.0
 245   10:25   54.5    55    4.4   299     6.3   999.00    698.1      0.0    -1430       0   999.0        0     0.0
 245   10:30   54.6    54    4.2   310     7.2   999.00    697.9      0.0    -1430       0   999.0        0     0.0
 245   10:35   54.3    54    8.3   266    13.0   999.00    697.9      0.0    -1430       0   999.0        0     0.0
 245   10:40   54.0    56    5.4   253     7.9   999.00    697.9      0.0    -1429       0   999.0        0     0.0
 245   10:45   54.4    56    5.1   242     8.7   999.00    697.9      0.0    -1429       0   999.0        0     0.0
 245   10:50   54.9    55    6.0   258    11.5   999.00    697.9      0.0    -1429       0   999.0        0     0.0
 245   10:55   54.1    56    5.6   259     9.8   999.00    697.8      0.0    -1429       0   999.0        0     0.0
 245   11:00   54.5    56    6.3   248    12.6   999.00    697.8      0.0    -1429       0   999.0        0     0.0
 245   11:05   54.9    57    4.9   245    11.8   999.00    697.8      0.0    -1429       0   999.0        0     0.0
 245   11:10   55.6    56    5.8   253     8.9   999.00    697.7      0.0    -1428       0   999.0        0     0.0
 245   11:15   56.6    57    3.4   290     6.8   999.00    697.7      0.0    -1428       0   999.0        0     0.0
 245   11:20   57.0    55    5.9   266    10.0   999.00    697.7      0.0    -1428       0   999.0        0     0.0
 245   11:25   56.4    54    7.0   248    11.3   999.00    697.6      0.0    -1427       0   999.0        0     0.0
 245   11:30   55.8    55    6.8   243    14.4   999.00    697.5      0.0    -1427       0   999.0        0     0.0
 245   11:35   56.3    54    6.7   273    12.2   999.00    697.5      0.0    -1427       0   999.0        0     0.0
 245   11:40   57.1    54    7.1   264    10.2   999.00    697.4      0.0    -1427       0   999.0        0     0.0
 245   11:45   57.1    53    5.6   269     8.1   999.00    697.4      0.0    -1427       0   999.0        0     0.0
 245   11:50   57.5    53    7.7   242    12.4   999.00    697.4      0.0    -1426       0   999.0        0     0.0
 245   11:55   55.8    54    5.3   256     7.0   999.00    697.5      0.0    -1426       0   999.0        0     0.0
 245   12:00   54.8    57    7.7   268    12.0   999.00    697.4      0.0    -1425       0   999.0        0     0.0
 245   12:05   55.5    57   11.2   280    16.9   999.00    697.3      0.0    -1425       0   999.0        0     0.0
 245   12:10   55.1    54    9.7   269    16.9   999.00    697.3      0.0    -1424       0   999.0        0     0.0
 245   12:15   54.3    55    8.7   259    14.6   999.00    697.3      0.0    -1424       0   999.0        0     0.0
 245   12:20   53.4    56    8.9   259    15.0   999.00    697.3      0.0    -1424       0   999.0        0     0.0
 245   12:25   52.3    57    7.3   241    14.4   999.00    697.3      0.0    -1424       0   999.0        0     0.0
 245   12:30   52.8    52    3.8   249    13.3   999.00    697.1      0.0    -1423       0   999.0        0     0.0
 245   12:35   55.2    55    1.8   286     1.8   999.00    697.0      0.0    -1423       0   999.0        0     0.0
 245   12:40   56.7    51    1.9   286     2.5   999.00    697.1      0.0    -1423       0   999.0        0     0.0
 245   12:45   58.0    49    4.2   286     7.2   999.00    697.1      0.0    -1423       0   999.0        0     0.0
 245   12:50   56.9    50    4.9   283     7.6   999.00    697.1      0.0    -1422       0   999.0        0     0.0
 245   12:55   57.5    49    5.2   178     7.8   999.00    697.1      0.0    -1422       0   999.0        0     0.0
 245   13:00   56.4    50    6.1   185     8.5   999.00    697.0      0.0    -1422       0   999.0        0     0.0
 245   13:05   56.4    51    5.0   184     6.6   999.00    697.1      0.0    -1422       0   999.0        0     0.0
 245   13:10   57.1    52    4.4   172     8.1   999.00    697.0      0.0    -1422       0   999.0        0     0.0
 245   13:15   56.8    50    5.4   204     8.9   999.00    696.9      0.0    -1421       0   999.0        0     0.0
 245   13:20   57.0    53    3.3   141     5.7   999.00    696.9      0.0    -1421       0   999.0        0     0.0
 245   13:25   57.8    51    5.0   191     9.6   999.00    696.8      0.0    -1421       0   999.0        0     0.0
 245   13:30   58.5    50    4.9   226     8.9   999.00    696.8      0.0    -1421       0   999.0        0     0.0
 245   13:35   58.4    49    7.4   232    12.8   999.00    696.8      0.0    -1421       0   999.0        0     0.0
 245   13:40   57.4    51    6.7   209    10.7   999.00    696.8      0.0    -1421       0   999.0        0     0.0
 245   13:45   56.6    52    5.7   210     9.2   999.00    696.8      0.0    -1421       0   999.0        0     0.0
 245   13:50   56.6    52    8.5   188    11.7   999.00    696.8      0.0    -1421       0   999.0        0     0.0
 245   13:55   57.1    52    8.1   180    13.2   999.00    696.7      0.0    -1421       0   999.0        0     0.0
 245   14:00   58.0    51    7.0   152    11.1   999.00    696.7      0.0    -1420       0   999.0        0     0.0
 245   14:05   59.0    52    5.5   134     9.1   999.00    696.7      0.0    -1420       0   999.0        0     0.0
 245   14:10   60.6    48    4.2   164    10.2   999.00    696.6      0.0    -1420       0   999.0        0     0.0
 245   14:15   60.9    46    4.4   146     8.1   999.00    696.5      0.0    -1419       0   999.0        0     0.0
 245   14:20   62.5    42    6.9   161    12.2   999.00    696.5      0.0    -1419       0   999.0        0     0.0
 245   14:25   61.6    44    5.4   197     8.5   999.00    696.5      0.0    -1419       0   999.0        0     0.0
 245   14:30   58.0    47    6.6   211    11.5   999.00    696.5      0.0    -1419       0   999.0        0     0.0
 245   14:35   57.9    48    7.7   235    13.2   999.00    696.4      0.0    -1417       0   999.0        0     0.0
 245   14:40   57.5    49    8.7   230    12.4   999.00    696.4      0.0    -1416       0   999.0        0     0.0
 245   14:45   57.8    49    8.9   223    14.3   999.00    696.3      0.0    -1416       0   999.0        0     0.0
 245   14:50   59.2    49   10.3   269    16.3   999.00    696.2      0.0    -1415       0   999.0        0     0.0
 245   14:55   56.9    55   17.2   307    22.6   999.00    696.0      0.0    -1414       0   999.0        0     0.0
 245   15:00   54.4    62   16.4   316    22.8   999.00    696.0      0.0    -1414       0   999.0        0     0.0
 245   15:05   53.1    65   15.1   321    20.4   999.00    696.0      0.0    -1413       0   999.0        0     0.0
 245   15:10   52.4    65   11.9   327    16.3   999.00    696.1      0.0    -1413       0   999.0        0     0.0
 245   15:15   52.2    64    8.3   315    11.7   999.00    696.3      0.0    -1413       0   999.0        0     0.0
 245   15:20   53.4    62    8.0   329    11.7   999.00    696.1      0.0    -1412       0   999.0        0     0.0
 245   15:25   54.1    57    9.5   325    13.0   999.00    696.0      0.0    -1410       0   999.0        0     0.0
 245   15:30   54.8    54   11.8   307    15.2   999.00    696.1      0.0    -1410       0   999.0        0     0.0
 245   15:35   54.6    54    7.8   304    12.6   999.00    696.1      0.0    -1410       0   999.0        0     0.0
 245   15:40   56.0    53    1.8   291     1.8   999.00    696.1      0.0    -1410       0   999.0        0     0.0
 245   15:45   55.3    54    1.8   301     1.8   999.00    696.1      0.0    -1409       0   999.0        0     0.0
 245   15:50   55.3    55    1.8   285     1.8   999.00    696.1      0.0    -1409       0   999.0        0     0.0
 245   15:55   55.8    52    1.8   297     1.8   999.00    696.1      0.0    -1409       0   999.0        0     0.0
 245   16:00   55.2    50    1.8   299     1.8   999.00    696.1      0.0    -1409       0   999.0        0     0.0
 245   16:05   54.5    51    1.8   312     1.8   999.00    696.0      0.0    -1408       0   999.0        0     0.0
 245   16:10   54.4    51    1.8   319     1.8   999.00    696.0      0.0    -1408       0   999.0        0     0.0
 245   16:15   55.6    50    1.8   325     1.8   999.00    696.0      0.0    -1408       0   999.0        0     0.0
 245   16:20   56.8    47    1.8   331     1.8   999.00    695.9      0.0    -1406       0   999.0        0     0.0
 245   16:25   57.3    47    1.8   335     1.8   999.00    695.9      0.0    -1405       0   999.0        0     0.0
 245   16:30   57.7    46    1.8   334     1.8   999.00    695.8      0.0    -1405       0   999.0        0     0.0
 245   16:35   58.5    46    1.8   284     1.8   999.00    695.8      0.0    -1405       0   999.0        0     0.0
 245   16:40   58.2    46    1.8   281     1.8   999.00    695.7      0.0    -1404       0   999.0        0     0.0
 245   16:45   58.6    45    1.8   264     1.8   999.00    695.8      0.0    -1404       0   999.0        0     0.0
 245   16:50   58.7    46    1.8   270     1.8   999.00    695.9      0.0    -1404       0   999.0        0     0.0
 245   16:55   57.6    46    1.8   293     1.8   999.00    695.9      0.0    -1404       0   999.0        0     0.0
 245   17:00   57.3    47    1.8   298     1.8   999.00    695.9      0.0    -1404       0   999.0        0     0.0
 245   17:05   57.5    47    1.8   260     1.8   999.00    695.9      0.0    -1404       0   999.0        0     0.0
 245   17:10   58.2    46    1.8   264     1.8   999.00    695.9      0.0    -1404       0   999.0        0     0.0
 245   17:15   58.0    46    1.8   263     1.8   999.00    695.9      0.0    -1403       0   999.0        0     0.0
 245   17:20   58.5    45    1.8   257     1.8   999.00    695.9      0.0    -1403       0   999.0        0     0.0
 245   17:25   58.2    45    1.8   250     1.8   999.00    696.0      0.0    -1403       0   999.0        0     0.0
 245   17:30   57.8    46    1.8   228     1.8   999.00    696.0      0.0    -1403       0   999.0        0     0.0
 245   17:35   58.0    47    1.8   241     1.8   999.00    696.0      0.0    -1403       0   999.0        0     0.0
 245   17:40   57.5    47    1.8   244     1.8   999.00    696.0      0.0    -1403       0   999.0        0     0.0
 245   17:45   57.3    48    1.8   250     1.8   999.00    696.0      0.0    -1403       0   999.0        0     0.0
 245   17:50   57.3    49    1.8   240     1.8   999.00    696.0      0.0    -1403       0   999.0        0     0.0
 245   17:55   57.0    50    1.8   245     1.8   999.00    696.0      0.0    -1403       0   999.0        0     0.0
 245   18:00   56.5    50    1.8   240     1.8   999.00    695.9      0.0    -1403       0   999.0        0     0.0
 245   18:05   56.3    50    1.8   246     1.8   999.00    695.9      0.0    -1403       0   999.0        0     0.0
 245   18:10   55.9    53    1.8   258     1.8   999.00    695.8      0.0    -1402       0   999.0        0     0.0
 245   18:15   55.1    53    1.8   272     1.8   999.00    695.8      0.0    -1402       0   999.0        0     0.0
 245   18:20   54.2    55    1.8   276     1.8   999.00    695.8      0.0    -1402       0   999.0        0     0.0
 245   18:25   53.6    56    1.8   291     1.8   999.00    695.8      0.0    -1402       0   999.0        0     0.0
 245   18:30   53.5    55    1.8   306     1.8   999.00    695.8      0.0    -1402       0   999.0        0     0.0
 245   18:35   53.5    54    1.8   306     1.8   999.00    695.9      0.0    -1402       0   999.0        0     0.0
 245   18:40   53.3    55    1.8   311     1.8   999.00    695.8      0.0    -1402       0   999.0        0     0.0
 245   18:45   53.2    56    1.8   310     1.8   999.00    695.8      0.0    -1402       0   999.0        0     0.0
 245   18:50   53.1    57    1.8   311     1.8   999.00    695.8      0.0    -1402       0   999.0        0     0.0
 245   18:55   53.1    57    1.8   311     1.8   999.00    695.9      0.0    -1402       0   999.0        0     0.0
 245   19:00   53.1    57    1.8   311     1.8   999.00    695.9      0.0    -1402       0   999.0        0     0.0
 245   19:05   53.3    57    1.8   311     1.8   999.00    695.9      0.0    -1403       0   999.0        0     0.0
 245   19:10   53.4    56    1.8   311     1.8   999.00    695.9      0.0    -1403       0   999.0        0     0.0
 245   19:15   53.4    56    1.8   311     1.8   999.00    696.0      0.0    -1403       0   999.0        0     0.0
 245   19:20   53.4    56    1.8   311     1.8   999.00    696.0      0.0    -1403       0   999.0        0     0.0
 245   19:25   53.2    57    1.8   289     1.8   999.00    696.0      0.0    -1403       0   999.0        0     0.0
 245   19:30   53.6    56    1.8   238     1.8   999.00    696.0      0.0    -1403       0   999.0        0     0.0
 245   19:35   53.9    56    1.8   232     1.8   999.00    696.1      0.0    -1403       0   999.0        0     0.0
 245   19:40   53.6    57    1.8   235     1.8   999.00    696.1      0.0    -1403       0   999.0        0     0.0
 245   19:45   53.5    57    1.8   237     1.8   999.00    696.1      0.0    -1404       0   999.0        0     0.0
 245   19:50   53.5    57    1.8   237     1.8   999.00    696.1      0.0    -1404       0   999.0        0     0.0
 245   19:55   53.7    57    1.8   236     1.8   999.00    696.2      0.0    -1404       0   999.0        0     0.0
 245   20:00   53.6    57    1.8   238     1.8   999.00    696.1      0.0    -1404       0   999.0        0     0.0
 245   20:05   53.5    57    1.8   245     1.8   999.00    696.2      0.0    -1405       0   999.0        0     0.0
 245   20:10   53.4    58    1.8   261     1.8   999.00    696.2      0.0    -1405       0   999.0        0     0.0
 245   20:15   53.3    58    1.8   257     1.8   999.00    696.2      0.0    -1405       0   999.0        0     0.0
 245   20:20   53.3    58    1.8   256     1.8   999.00    696.3      0.0    -1406       0   999.0        0     0.0
 245   20:25   53.3    58    1.8   257     1.8   999.00    696.3      0.0    -1407       0   999.0        0     0.0
 245   20:30   53.5    57    1.8   242     1.8   999.00    696.3      0.0    -1407       0   999.0        0     0.0
 245   20:35   53.5    57    1.8   225     1.8   999.00    696.3      0.0    -1407       0   999.0        0     0.0
 245   20:40   53.6    56    1.8   216     1.8   999.00    696.3      0.0    -1407       0   999.0        0     0.0
 245   20:45   53.7    56    1.8   213     1.8   999.00    696.3      0.0    -1407       0   999.0        0     0.0
 245   20:50   53.7    56    1.8   221     1.8   999.00    696.2      0.0    -1407       0   999.0        0     0.0
 245   20:55   53.8    56    1.8   215     1.8   999.00    696.2      0.0    -1407       0   999.0        0     0.0
 245   21:00   53.7    56    1.8   216     1.8   999.00    696.2      0.0    -1407       0   999.0        0     0.0
 245   21:05   53.8    55    1.8   215     1.8   999.00    696.2      0.0    -1407       0   999.0        0     0.0
 245   21:10   53.7    55    1.8   219     1.8   999.00    696.2      0.0    -1408       0   999.0        0     0.0
 245   21:15   53.8    55    1.8   218     1.8   999.00    696.2      0.0    -1408       0   999.0        0     0.0
 245   21:20   53.7    56    1.8   215     1.8   999.00    696.2      0.0    -1408       0   999.0        0     0.0
 245   21:25   53.6    56    1.8   212     1.8   999.00    696.2      0.0    -1408       0   999.0        0     0.0
 245   21:30   53.5    56    1.8   210     1.8   999.00    696.2      0.0    -1408       0   999.0        0     0.0
 245   21:35   53.4    56    1.8   209     1.8   999.00    696.1      0.0    -1408       0   999.0        0     0.0
 245   21:40   53.3    56    1.8   207     1.8   999.00    696.1      0.0    -1408       0   999.0        0     0.0
 245   21:45   53.3    56    1.8   204     1.8   999.00    696.1      0.0    -1408       0   999.0        0     0.0
 245   21:50   53.3    56    1.8   192     1.8   999.00    696.0      0.0    -1408       0   999.0        0     0.0
 245   21:55   53.3    57    1.8   193     1.8   999.00    696.0      0.0    -1408       0   999.0        0     0.0
 245   22:00   53.2    57    1.8   196     1.8   999.00    696.0      0.0    -1408       0   999.0        0     0.0
 245   22:05   53.1    57    1.8   191     1.8   999.00    695.9      0.0    -1408       0   999.0        0     0.0
 245   22:10   53.1    56    1.8   197     1.8   999.00    696.0      0.0    -1409       0   999.0        0     0.0
 245   22:15   53.2    56    1.8   201     1.8   999.00    696.0      0.0    -1409       0   999.0        0     0.0
 245   22:20   53.0    56    1.8   203     1.8   999.00    696.0      0.0    -1409       0   999.0        0     0.0
 245   22:25   52.8    57    1.8   190     1.8   999.00    695.9      0.0    -1410       0   999.0        0     0.0
 245   22:30   52.5    57    1.8   174     1.8   999.00    695.9      0.0    -1410       0   999.0        0     0.0
 245   22:35   52.5    57    1.8   178     1.8   999.00    695.9      0.0    -1411       0   999.0        0     0.0
 245   22:40   52.5    57    1.8   181     1.8   999.00    695.8      0.0    -1411       0   999.0        0     0.0
 245   22:45   52.5    58    1.8   175     1.8   999.00    695.8      0.0    -1411       0   999.0        0     0.0
 245   22:50   52.5    59    1.8   201     1.8   999.00    695.8      0.0    -1411       0   999.0        0     0.0
 245   22:55   52.5    59    1.8   205     1.8   999.00    695.8      0.0    -1411       0   999.0        0     0.0
 245   23:00   52.6    59    1.8   208     1.8   999.00    695.8      0.0    -1411       0   999.0        0     0.0
 245   23:05   52.3    60    1.8   204     1.8   999.00    695.7      0.0    -1411       0   999.0        0     0.0
 245   23:10   52.1    61    1.8   200     1.8   999.00    695.7      0.0    -1411       0   999.0        0     0.0
 245   23:15   52.0    61    1.8   199     1.8   999.00    695.7      0.0    -1411       0   999.0        0     0.0
 245   23:20   52.1    62    2.3   192     9.4   999.00    695.8      0.0    -1411       0   999.0        0     0.0
 245   23:25   52.1    62    3.2   185    12.6   999.00    695.9      0.0    -1412       0   999.0        0     0.0
 245   23:30   52.0    62    5.5   181    13.7   999.00    695.9      0.0    -1412       0   999.0        0     0.0
 245   23:35   51.9    62    7.3   185    14.4   999.00    695.8      0.0    -1412       0   999.0        0     0.0
 245   23:40   51.8    63    7.0   182    12.6   999.00    695.8      0.0    -1412       0   999.0        0     0.0
 245   23:45   51.8    63    5.1   188    16.1   999.00    695.8      0.0    -1412       0   999.0        0     0.0
 245   23:50   52.0    64    7.2   197    16.5   999.00    695.7      0.0    -1412       0   999.0        0     0.0
 245   23:55   51.9    64    6.4   200    17.2   999.00    695.7      0.0    -1412       0   999.0        0     0.0
 246    0:00   52.0    64    4.3   198    14.6   999.00    695.7      0.0    -1412       0   999.0        0     0.0
 246    0:05   51.9    64    1.8   200     1.8   999.00    695.6      0.0    -1412       0   999.0        0     0.0
 246    0:10   51.8    64    1.8   197     1.8   999.00    695.6      0.0    -1412       0   999.0        0     0.0
 246    0:15   51.8    64    1.8   197     1.8   999.00    695.7      0.0    -1412       0   999.0        0     0.0
 246    0:20   51.8    64    1.8   198     1.8   999.00    695.7      0.0    -1413       0   999.0        0     0.0
 246    0:25   51.6    65    1.8   192     1.8   999.00    695.6      0.0    -1413       0   999.0        0     0.0
 246    0:30   51.7    65    1.8   190     1.8   999.00    695.5      0.0    -1413       0   999.0        0     0.0
 246    0:35   51.6    65    1.8   196     1.8   999.00    695.5      0.0    -1413       0   999.0        0     0.0
 246    0:40   51.7    65    1.8   190     1.8   999.00    695.5      0.0    -1413       0   999.0        0     0.0
 246    0:45   51.5    66    1.8   185     1.8   999.00    695.5      0.0    -1413       0   999.0        0     0.0
 246    0:50   51.4    66    1.8   183     1.8   999.00    695.4      0.0    -1413       0   999.0        0     0.0
 246    0:55   51.4    66    1.8   182     2.0   999.00    695.4      0.0    -1413       0   999.0        0     0.0
 246    1:00   51.4    66    1.8   180     1.8   999.00    695.3      0.0    -1413       0   999.0        0     0.0
 246    1:05   51.4    66    1.8   187     2.5   999.00    695.4      0.0    -1413       0   999.0        0     0.0
 246    1:10   51.6    65    1.8   191     2.9   999.00    695.3      0.0    -1414       0   999.0        0     0.0
 246    1:15   51.7    64    1.8   196     3.3   999.00    695.3      0.0    -1414       0   999.0        0     0.0
 246    1:20   51.8    64    1.8   197     1.8   999.00    695.2      0.0    -1415       0   999.0        0     0.0
 246    1:25   51.7    65    1.8   198     1.8   999.00    695.2      0.0    -1415       0   999.0        0     0.0
 246    1:30   51.7    64    1.8   206     1.8   999.00    695.2      0.0    -1415       0   999.0        0     0.0
 246    1:35   51.8    64    1.8   202     2.4   999.00    695.2      0.0    -1415       0   999.0        0     0.0
 246    1:40   51.4    65    1.8   201     1.8   999.00    695.2      0.0    -1415       0   999.0        0     0.0
 246    1:45   51.4    64    1.9   204     5.7   999.00    695.2      0.0    -1415       0   999.0        0     0.0
 246    1:50   51.5    62    1.8   202     1.8   999.00    695.2      0.0    -1415       0   999.0        0     0.0
 246    1:55   51.5    62    1.8   201     2.0   999.00    695.2      0.0    -1415       0   999.0        0     0.0
 246    2:00   51.5    62    3.2   207    11.8   999.00    695.2      0.0    -1415       0   999.0        0     0.0
 246    2:05   51.7    62    3.3   208    11.5   999.00    695.1      0.0    -1415       0   999.0        0     0.0
 246    2:10   51.5    62    3.3   209    10.0   999.00    695.1      0.0    -1415       0   999.0        0     0.0
 246    2:15   51.7    60    2.3   220    13.5   999.00    695.1      0.0    -1415       0   999.0        0     0.0
 246    2:20   51.8    61    2.2   211     9.2   999.00    695.0      0.0    -1415       0   999.0        0     0.0
 246    2:25   51.7    62    3.4   210    14.4   999.00    695.0      0.0    -1415       0   999.0        0     0.0
 246    2:30   51.7    62    2.0   212     6.3   999.00    695.0      0.0    -1415       0   999.0        0     0.0
 246    2:35   51.6    63    2.8   212    12.6   999.00    695.0      0.0    -1416       0   999.0        0     0.0
 246    2:40   51.6    62    2.0   212     5.2   999.00    695.0      0.0    -1416       0   999.0        0     0.0
 246    2:45   51.5    63    1.9   210     4.6   999.00    695.1      0.0    -1416       0   999.0        0     0.0
 246    2:50   51.5    63    2.0   210     9.1   999.00    695.0      0.0    -1416       0   999.0        0     0.0
 246    2:55   51.4    64    2.3   212     9.8   999.00    695.0      0.0    -1416       0   999.0        0     0.0
 246    3:00   51.2    64    2.3   211     7.4   999.00    695.0      0.0    -1416       0   999.0        0     0.0
 246    3:05   51.4    63    1.9   210     7.2   999.00    695.0      0.0    -1416       0   999.0        0     0.0
 246    3:10   51.4    64    1.8   204     1.8   999.00    695.1      0.0    -1417       0   999.0        0     0.0
 246    3:15   51.2    64    1.8   206     2.7   999.00    695.1      0.0    -1417       0   999.0        0     0.0
 246    3:20   51.5    61    1.8   214     1.8   999.00    695.0      0.0    -1417       0   999.0        0     0.0
 246    3:25   51.6    62    1.8   212     1.8   999.00    695.0      0.0    -1417       0   999.0        0     0.0
 246    3:30   51.5    62    1.8   210     1.8   999.00    695.1      0.0    -1417       0   999.0        0     0.0
 246    3:35   51.4    62    1.8   205     1.8   999.00    695.1      0.0    -1417       0   999.0        0     0.0
 246    3:40   51.3    62    1.8   205     1.8   999.00    695.1      0.0    -1417       0   999.0        0     0.0
 246    3:45   51.2    62    1.8   204     1.8   999.00    695.2      0.0    -1417       0   999.0        0     0.0
 246    3:50   51.2    62    1.8   208     1.8   999.00    695.2      0.0    -1417       0   999.0        0     0.0
 246    3:55   51.3    62    1.8   207     1.8   999.00    695.2      0.0    -1417       0   999.0        0     0.0
 246    4:00   51.3    61    1.8   218     1.8   999.00    695.2      0.0    -1417       0   999.0        0     0.0
 246    4:05   51.4    61    1.8   223     1.8   999.00    695.1      0.0    -1417       0   999.0        0     0.0
 246    4:10   51.2    61    1.8   225     1.8   999.00    695.1      0.0    -1417       0   999.0        0     0.0
 246    4:15   51.1    61    1.8   223     1.8   999.00    695.1      0.0    -1418       0   999.0        0     0.0
 246    4:20   51.1    62    1.8   219     1.8   999.00    695.2      0.0    -1418       0   999.0        0     0.0
 246    4:25   51.0    62    1.8   223     1.8   999.00    695.2      0.0    -1418       0   999.0        0     0.0
 246    4:30   50.9    62    1.8   224     1.8   999.00    695.2      0.0    -1418       0   999.0        0     0.0
 246    4:35   50.8    62    1.8   220     1.8   999.00    695.2      0.0    -1418       0   999.0        0     0.0
 246    4:40   50.8    62    2.0   218     5.9   999.00    695.2      0.0    -1418       0   999.0        0     0.0
 246    4:45   50.7    62    2.4   214    12.4   999.00    695.2      0.0    -1418       0   999.0        0     0.0
 246    4:50   50.7    63    7.2   211    11.8   999.00    695.2      0.0    -1418       0   999.0        0     0.0
 246    4:55   50.4    64    5.3   206     9.2   999.00    695.2      0.0    -1418       0   999.0        0     0.0
 246    5:00   50.6    62    7.2   209    12.0   999.00    695.2      0.0    -1418       0   999.0        0     0.0
 246    5:05   50.5    62    3.5   213    11.5   999.00    695.2      0.0    -1419       0   999.0        0     0.0
 246    5:10   50.5    63    2.8   215    11.3   999.00    695.3      0.0    -1419       0   999.0        0     0.0
 246    5:15   50.5    62    8.6   212    11.7   999.00    695.3      0.0    -1420       0   999.0        0     0.0
 246    5:20   50.3    63    8.2   214    12.6   999.00    695.4      0.0    -1420       0   999.0        0     0.0
 246    5:25   50.4    62    9.0   216    13.2   999.00    695.3      0.0    -1421       0   999.0        0     0.0
 246    5:30   50.5    62    9.9   216    17.2   999.00    695.4      0.0    -1420       0   999.0        0     0.0
 246    5:35   50.4    62    7.8   208    11.3   999.00    695.4      0.0    -1420       0   999.0        0     0.0
 246    5:40   50.2    63    8.1   205    11.8   999.00    695.4      0.0    -1420       0   999.0        0     0.0
 246    5:45   50.0    63   10.0   198    13.9   999.00    695.4      0.0    -1420       0   999.0        0     0.0
 246    5:50   50.1    63    9.9   197    12.8   999.00    695.5      0.0    -1421       0   999.0        0     0.0
 246    5:55   50.1    63   10.1   192    14.4   999.00    695.5      0.0    -1421       0   999.0        0     0.0
 246    6:00   50.1    63    8.4   197    11.8   999.00    695.5      0.0    -1421       0   999.0        0     0.0
 246    6:05   50.1    63    9.3   202    12.6   999.00    695.5      0.0    -1422       0   999.0        0     0.0
 246    6:10   50.1    63    8.1   204    11.5   999.00    695.5      0.0    -1422       0   999.0        0     0.0
 246    6:15   50.2    63    9.5   200    15.0   999.00    695.5      0.0    -1422       0   999.0        0     0.0
 246    6:20   50.3    62    7.6   208    10.9   999.00    695.6      0.0    -1421       0   999.0        0     0.0
 246    6:25   50.5    61    5.2   224    13.3   999.00    695.6      0.0    -1421       0   999.0        0     0.0
 246    6:30   50.5    61    2.6   222    14.1   999.00    695.6      0.0    -1421       0   999.0        0     0.0
 246    6:35   50.4    62    1.8   216     1.8   999.00    695.6      0.0    -1420       0   999.0        0     0.0
 246    6:40   50.4    62    1.9   214     7.9   999.00    695.6      0.0    -1420       0   999.0        0     0.0
 246    6:45   50.5    62    1.8   225     1.8   999.00    695.6      0.0    -1420       0   999.0        0     0.0
 246    6:50   50.6    62    1.8   214     1.8   999.00    695.6      0.0    -1420       0   999.0        0     0.0
 246    6:55   50.5    62    1.8   222     1.8   999.00    695.6      0.0    -1420       0   999.0        0     0.0
 246    7:00   50.6    62    1.8   219     1.8   999.00    695.6      0.0    -1420       0   999.0        0     0.0
 246    7:05   50.6    62    1.8   217     1.8   999.00    695.6      0.0    -1420       0   999.0        0     0.0
 246    7:10   50.7    62    1.8   220     1.8   999.00    695.6      0.0    -1420       0   999.0        0     0.0
 246    7:15   50.9    62    1.8   220     1.8   999.00    695.5      0.0    -1419       0   999.0        0     0.0
 246    7:20   51.0    61    1.8   222     1.8   999.00    695.5      0.0    -1419       0   999.0        0     0.0
 246    7:25   51.0    61    1.8   216     1.8   999.00    695.5      0.0    -1419       0   999.0        0     0.0
 246    7:30   51.4    61    1.8   218     1.8   999.00    695.5      0.0    -1419       0   999.0        0     0.0
 246    7:35   51.6    61    1.8   217     1.8   999.00    695.5      0.0    -1419       0   999.0        0     0.0
 246    7:40   51.9    60    1.8   218     1.8   999.00    695.6      0.0    -1419       0   999.0        0     0.0
 246    7:45   52.1    60    1.8   217     1.8   999.00    695.5      0.0    -1419       0   999.0        0     0.0
 246    7:50   52.0    60    5.1   199    10.9   999.00    695.5      0.0    -1418       0   999.0        0     0.0
 246    7:55   52.2    60    6.3   197     9.6   999.00    695.5      0.0    -1418       0   999.0        0     0.0
 246    8:00   51.9    60    1.8   208     1.8   999.00    695.6      0.0    -1418       0   999.0        0     0.0
 246    8:05   52.6    59    1.8   206     1.8   999.00    695.6      0.0    -1418       0   999.0        0     0.0
 246    8:10   52.1    60    1.8   212     1.8   999.00    695.6      0.0    -1418       0   999.0        0     0.0
 246    8:15   51.5    59    1.8   215     1.8   999.00    695.6      0.0    -1418       0   999.0        0     0.0
 246    8:20   51.3    62    1.8   215     1.8   999.00    695.5      0.0    -1417       0   999.0        0     0.0
 246    8:25   51.7    61    1.8   217     1.8   999.00    695.6      0.0    -1417       0   999.0        0     0.0
 246    8:30   51.8    61    1.8   216     1.8   999.00    695.6      0.0    -1417       0   999.0        0     0.0
 246    8:35   52.1    60    1.8   208     1.8   999.00    695.6      0.0    -1417       0   999.0        0     0.0
 246    8:40   52.4    60    1.8   210     1.8   999.00    695.6      0.0    -1417       0   999.0        0     0.0
 246    8:45   52.4    61    1.8   214     1.8   999.00    695.6      0.0    -1416       0   999.0        0     0.0
 246    8:50   52.5    60    1.8   214     1.8   999.00    695.6      0.0    -1415       0   999.0        0     0.0
 246    8:55   52.2    61    1.8   217     1.8   999.00    695.7      0.0    -1415       0   999.0        0     0.0
 246    9:00   51.9    61    1.8   218     1.8   999.00    695.7      0.0    -1414       0   999.0        0     0.0
 246    9:05   52.1    61    1.8   225     1.8   999.00    695.7      0.0    -1414       0   999.0        0     0.0
 246    9:10   52.4    60    1.8   227     1.8   999.00    695.7      0.0    -1414       0   999.0        0     0.0
 246    9:15   52.7    60    1.8   224     1.8   999.00    695.7      0.0    -1414       0   999.0        0     0.0
 246    9:20   52.7    60    1.8   224     1.8   999.00    695.7      0.0    -1413       0   999.0        0     0.0
 246    9:25   52.5    60    1.8   224     1.8   999.00    695.8      0.0    -1413       0   999.0        0     0.0
 246    9:30   52.6    61    1.8   226     1.8   999.00    695.8      0.0    -1413       0   999.0        0     0.0
 246    9:35   52.4    63    1.8   228     1.8   999.00    695.8      0.0    -1413       0   999.0        0     0.0
 246    9:40   52.7    62    1.8   236     1.8   999.00    695.7      0.0    -1413       0   999.0        0     0.0
 246    9:45   53.3    61    1.8   239     1.8   999.00    695.6      0.0    -1412       0   999.0        0     0.0
 246    9:50   54.1    62    1.8   245     1.8   999.00    695.6      0.0    -1412       0   999.0        0     0.0
 246    9:55   53.6    62    1.8   265     1.8   999.00    695.6      0.0    -1412       0   999.0        0     0.0
 246   10:00   53.0    62    1.8   274     1.8   999.00    695.6      0.0    -1412       0   999.0        0     0.0

Return to DRI Storm Peak Lab. graphs page.


Western Regional Climate Center,wrcc@dri.edu